sensor_id;sensor_type;location;lat;lon;timestamp;P1;durP1;ratioP1;P2;durP2;ratioP2
58302;SDS011;44109;52.398;7.024;2023-06-19T00:05:11;5.65;;;3.28;;
58302;SDS011;44109;52.398;7.024;2023-06-19T00:07:41;4.28;;;2.65;;
58302;SDS011;44109;52.398;7.024;2023-06-19T00:10:08;6.82;;;3.97;;
58302;SDS011;44109;52.398;7.024;2023-06-19T00:12:37;6.38;;;3.72;;
58302;SDS011;44109;52.398;7.024;2023-06-19T00:15:05;6.15;;;2.88;;
58302;SDS011;44109;52.398;7.024;2023-06-19T00:17:35;5.40;;;3.28;;
58302;SDS011;44109;52.398;7.024;2023-06-19T00:20:17;7.63;;;2.90;;
58302;SDS011;44109;52.398;7.024;2023-06-19T00:22:45;6.13;;;2.90;;
58302;SDS011;44109;52.398;7.024;2023-06-19T00:25:17;5.45;;;3.00;;
58302;SDS011;44109;52.398;7.024;2023-06-19T00:27:46;5.97;;;3.40;;
58302;SDS011;44109;52.398;7.024;2023-06-19T00:30:14;4.28;;;2.75;;
58302;SDS011;44109;52.398;7.024;2023-06-19T00:32:41;5.15;;;2.42;;
58302;SDS011;44109;52.398;7.024;2023-06-19T00:35:16;4.13;;;2.88;;
58302;SDS011;44109;52.398;7.024;2023-06-19T00:37:46;5.50;;;2.80;;
58302;SDS011;44109;52.398;7.024;2023-06-19T00:40:16;5.22;;;3.50;;
58302;SDS011;44109;52.398;7.024;2023-06-19T00:42:53;4.22;;;2.85;;
58302;SDS011;44109;52.398;7.024;2023-06-19T00:45:21;4.80;;;3.28;;
58302;SDS011;44109;52.398;7.024;2023-06-19T00:47:50;5.28;;;3.40;;
58302;SDS011;44109;52.398;7.024;2023-06-19T00:50:18;6.22;;;3.55;;
58302;SDS011;44109;52.398;7.024;2023-06-19T00:52:47;6.22;;;2.97;;
58302;SDS011;44109;52.398;7.024;2023-06-19T00:55:16;3.67;;;2.70;;
58302;SDS011;44109;52.398;7.024;2023-06-19T00:57:44;8.35;;;3.92;;
58302;SDS011;44109;52.398;7.024;2023-06-19T01:00:13;5.10;;;3.83;;
58302;SDS011;44109;52.398;7.024;2023-06-19T01:02:41;4.22;;;2.58;;
58302;SDS011;44109;52.398;7.024;2023-06-19T01:05:09;6.20;;;4.18;;
58302;SDS011;44109;52.398;7.024;2023-06-19T01:07:41;5.35;;;2.88;;
58302;SDS011;44109;52.398;7.024;2023-06-19T01:10:16;6.75;;;3.85;;
58302;SDS011;44109;52.398;7.024;2023-06-19T01:12:51;5.25;;;3.00;;
58302;SDS011;44109;52.398;7.024;2023-06-19T01:15:23;6.50;;;3.50;;
58302;SDS011;44109;52.398;7.024;2023-06-19T01:17:53;5.97;;;2.65;;
58302;SDS011;44109;52.398;7.024;2023-06-19T01:20:23;4.00;;;2.97;;
58302;SDS011;44109;52.398;7.024;2023-06-19T01:22:53;5.50;;;3.20;;
58302;SDS011;44109;52.398;7.024;2023-06-19T01:25:22;5.35;;;2.80;;
58302;SDS011;44109;52.398;7.024;2023-06-19T01:27:50;5.05;;;3.10;;
58302;SDS011;44109;52.398;7.024;2023-06-19T01:30:19;6.75;;;3.53;;
58302;SDS011;44109;52.398;7.024;2023-06-19T01:32:50;6.28;;;3.08;;
58302;SDS011;44109;52.398;7.024;2023-06-19T01:35:27;5.82;;;2.97;;
58302;SDS011;44109;52.398;7.024;2023-06-19T01:37:59;6.20;;;2.92;;
58302;SDS011;44109;52.398;7.024;2023-06-19T01:40:29;4.80;;;3.17;;
58302;SDS011;44109;52.398;7.024;2023-06-19T01:42:58;6.82;;;3.45;;
58302;SDS011;44109;52.398;7.024;2023-06-19T01:45:28;5.10;;;3.65;;
58302;SDS011;44109;52.398;7.024;2023-06-19T01:47:57;4.50;;;3.58;;
58302;SDS011;44109;52.398;7.024;2023-06-19T01:50:25;6.80;;;3.17;;
58302;SDS011;44109;52.398;7.024;2023-06-19T01:52:52;5.28;;;3.33;;
58302;SDS011;44109;52.398;7.024;2023-06-19T01:55:21;4.07;;;3.17;;
58302;SDS011;44109;52.398;7.024;2023-06-19T01:57:49;4.82;;;2.97;;
58302;SDS011;44109;52.398;7.024;2023-06-19T02:00:17;5.57;;;3.17;;
58302;SDS011;44109;52.398;7.024;2023-06-19T02:02:45;6.38;;;3.47;;
58302;SDS011;44109;52.398;7.024;2023-06-19T02:05:13;5.95;;;3.03;;
58302;SDS011;44109;52.398;7.024;2023-06-19T02:07:41;5.82;;;3.53;;
58302;SDS011;44109;52.398;7.024;2023-06-19T02:10:09;6.22;;;2.90;;
58302;SDS011;44109;52.398;7.024;2023-06-19T02:12:38;5.43;;;3.03;;
58302;SDS011;44109;52.398;7.024;2023-06-19T02:15:06;6.75;;;3.58;;
58302;SDS011;44109;52.398;7.024;2023-06-19T02:17:35;4.43;;;2.60;;
58302;SDS011;44109;52.398;7.024;2023-06-19T02:20:03;4.32;;;2.90;;
58302;SDS011;44109;52.398;7.024;2023-06-19T02:22:34;4.90;;;3.22;;
58302;SDS011;44109;52.398;7.024;2023-06-19T02:25:02;4.00;;;2.90;;
58302;SDS011;44109;52.398;7.024;2023-06-19T02:27:30;4.30;;;2.72;;
58302;SDS011;44109;52.398;7.024;2023-06-19T02:30:00;4.82;;;2.97;;
58302;SDS011;44109;52.398;7.024;2023-06-19T02:32:27;8.48;;;2.88;;
58302;SDS011;44109;52.398;7.024;2023-06-19T02:34:55;3.58;;;1.90;;
58302;SDS011;44109;52.398;7.024;2023-06-19T02:37:22;3.25;;;2.30;;
58302;SDS011;44109;52.398;7.024;2023-06-19T02:39:50;5.50;;;2.83;;
58302;SDS011;44109;52.398;7.024;2023-06-19T02:42:18;5.07;;;2.10;;
58302;SDS011;44109;52.398;7.024;2023-06-19T02:44:45;4.13;;;2.38;;
58302;SDS011;44109;52.398;7.024;2023-06-19T02:47:14;4.00;;;1.90;;
58302;SDS011;44109;52.398;7.024;2023-06-19T02:49:42;4.25;;;2.42;;
58302;SDS011;44109;52.398;7.024;2023-06-19T02:52:09;5.63;;;2.20;;
58302;SDS011;44109;52.398;7.024;2023-06-19T02:54:37;4.55;;;2.38;;
58302;SDS011;44109;52.398;7.024;2023-06-19T02:57:05;4.10;;;2.20;;
58302;SDS011;44109;52.398;7.024;2023-06-19T02:59:34;3.42;;;2.05;;
58302;SDS011;44109;52.398;7.024;2023-06-19T03:02:02;4.00;;;2.72;;
58302;SDS011;44109;52.398;7.024;2023-06-19T03:04:32;3.20;;;2.30;;
58302;SDS011;44109;52.398;7.024;2023-06-19T03:06:59;6.72;;;2.58;;
58302;SDS011;44109;52.398;7.024;2023-06-19T03:09:28;2.65;;;1.45;;
58302;SDS011;44109;52.398;7.024;2023-06-19T03:11:56;3.75;;;2.42;;
58302;SDS011;44109;52.398;7.024;2023-06-19T03:14:23;4.20;;;1.90;;
58302;SDS011;44109;52.398;7.024;2023-06-19T03:16:51;3.53;;;2.53;;
58302;SDS011;44109;52.398;7.024;2023-06-19T03:19:19;3.80;;;2.28;;
58302;SDS011;44109;52.398;7.024;2023-06-19T03:21:48;4.82;;;2.80;;
58302;SDS011;44109;52.398;7.024;2023-06-19T03:24:15;3.95;;;2.08;;
58302;SDS011;44109;52.398;7.024;2023-06-19T03:26:43;5.30;;;2.72;;
58302;SDS011;44109;52.398;7.024;2023-06-19T03:29:10;2.55;;;1.98;;
58302;SDS011;44109;52.398;7.024;2023-06-19T03:31:38;2.97;;;2.08;;
58302;SDS011;44109;52.398;7.024;2023-06-19T03:34:06;5.82;;;3.00;;
58302;SDS011;44109;52.398;7.024;2023-06-19T03:36:33;4.63;;;2.13;;
58302;SDS011;44109;52.398;7.024;2023-06-19T03:39:02;4.88;;;1.70;;
58302;SDS011;44109;52.398;7.024;2023-06-19T03:41:30;4.78;;;2.50;;
58302;SDS011;44109;52.398;7.024;2023-06-19T03:43:57;4.30;;;2.10;;
58302;SDS011;44109;52.398;7.024;2023-06-19T03:46:25;6.68;;;2.00;;
58302;SDS011;44109;52.398;7.024;2023-06-19T03:48:53;5.22;;;2.20;;
58302;SDS011;44109;52.398;7.024;2023-06-19T03:51:20;4.40;;;2.13;;
58302;SDS011;44109;52.398;7.024;2023-06-19T03:53:48;3.90;;;2.03;;
58302;SDS011;44109;52.398;7.024;2023-06-19T03:56:17;2.50;;;1.30;;
58302;SDS011;44109;52.398;7.024;2023-06-19T03:58:44;3.53;;;2.22;;
58302;SDS011;44109;52.398;7.024;2023-06-19T04:01:12;3.75;;;2.13;;
58302;SDS011;44109;52.398;7.024;2023-06-19T04:03:39;3.35;;;1.67;;
58302;SDS011;44109;52.398;7.024;2023-06-19T04:06:07;3.42;;;1.83;;
58302;SDS011;44109;52.398;7.024;2023-06-19T04:08:35;3.53;;;1.95;;
58302;SDS011;44109;52.398;7.024;2023-06-19T04:11:03;6.30;;;2.38;;
58302;SDS011;44109;52.398;7.024;2023-06-19T04:13:32;4.75;;;2.13;;
58302;SDS011;44109;52.398;7.024;2023-06-19T04:16:00;3.63;;;1.80;;
58302;SDS011;44109;52.398;7.024;2023-06-19T04:18:27;7.32;;;2.33;;
58302;SDS011;44109;52.398;7.024;2023-06-19T04:20:55;4.40;;;1.60;;
58302;SDS011;44109;52.398;7.024;2023-06-19T04:23:22;4.28;;;2.47;;
58302;SDS011;44109;52.398;7.024;2023-06-19T04:25:50;3.97;;;2.25;;
58302;SDS011;44109;52.398;7.024;2023-06-19T04:28:18;3.40;;;2.30;;
58302;SDS011;44109;52.398;7.024;2023-06-19T04:30:47;2.65;;;1.77;;
58302;SDS011;44109;52.398;7.024;2023-06-19T04:33:14;3.33;;;2.22;;
58302;SDS011;44109;52.398;7.024;2023-06-19T04:35:42;4.80;;;2.22;;
58302;SDS011;44109;52.398;7.024;2023-06-19T04:38:09;4.22;;;2.00;;
58302;SDS011;44109;52.398;7.024;2023-06-19T04:40:40;4.18;;;2.30;;
58302;SDS011;44109;52.398;7.024;2023-06-19T04:43:09;4.15;;;2.00;;
58302;SDS011;44109;52.398;7.024;2023-06-19T04:45:36;3.22;;;1.98;;
58302;SDS011;44109;52.398;7.024;2023-06-19T04:48:05;4.05;;;1.92;;
58302;SDS011;44109;52.398;7.024;2023-06-19T04:50:33;3.30;;;2.15;;
58302;SDS011;44109;52.398;7.024;2023-06-19T04:53:01;4.40;;;2.20;;
58302;SDS011;44109;52.398;7.024;2023-06-19T04:55:28;4.30;;;2.53;;
58302;SDS011;44109;52.398;7.024;2023-06-19T04:57:56;4.28;;;2.50;;
58302;SDS011;44109;52.398;7.024;2023-06-19T05:00:24;3.78;;;2.05;;
58302;SDS011;44109;52.398;7.024;2023-06-19T05:02:52;5.95;;;2.80;;
58302;SDS011;44109;52.398;7.024;2023-06-19T05:05:26;4.18;;;2.20;;
58302;SDS011;44109;52.398;7.024;2023-06-19T05:07:54;6.32;;;2.65;;
58302;SDS011;44109;52.398;7.024;2023-06-19T05:10:22;3.70;;;2.08;;
58302;SDS011;44109;52.398;7.024;2023-06-19T05:12:50;3.63;;;1.80;;
58302;SDS011;44109;52.398;7.024;2023-06-19T05:15:17;3.78;;;2.22;;
58302;SDS011;44109;52.398;7.024;2023-06-19T05:17:45;4.45;;;2.50;;
58302;SDS011;44109;52.398;7.024;2023-06-19T05:20:12;4.13;;;2.00;;
58302;SDS011;44109;52.398;7.024;2023-06-19T05:22:41;4.53;;;2.22;;
58302;SDS011;44109;52.398;7.024;2023-06-19T05:25:09;4.45;;;2.08;;
58302;SDS011;44109;52.398;7.024;2023-06-19T05:27:40;4.57;;;2.05;;
58302;SDS011;44109;52.398;7.024;2023-06-19T05:30:08;4.30;;;2.20;;
58302;SDS011;44109;52.398;7.024;2023-06-19T05:32:37;4.72;;;2.30;;
58302;SDS011;44109;52.398;7.024;2023-06-19T05:35:05;3.63;;;1.77;;
58302;SDS011;44109;52.398;7.024;2023-06-19T05:37:33;4.03;;;1.90;;
58302;SDS011;44109;52.398;7.024;2023-06-19T05:40:03;4.18;;;2.30;;
58302;SDS011;44109;52.398;7.024;2023-06-19T05:42:31;2.65;;;1.73;;
58302;SDS011;44109;52.398;7.024;2023-06-19T05:44:59;3.72;;;2.17;;
58302;SDS011;44109;52.398;7.024;2023-06-19T05:47:27;4.22;;;1.58;;
58302;SDS011;44109;52.398;7.024;2023-06-19T05:49:56;3.15;;;1.50;;
58302;SDS011;44109;52.398;7.024;2023-06-19T05:52:24;3.45;;;1.77;;
58302;SDS011;44109;52.398;7.024;2023-06-19T05:54:51;3.13;;;1.58;;
58302;SDS011;44109;52.398;7.024;2023-06-19T05:57:20;2.72;;;1.25;;
58302;SDS011;44109;52.398;7.024;2023-06-19T05:59:48;2.47;;;1.42;;
58302;SDS011;44109;52.398;7.024;2023-06-19T06:02:16;3.75;;;1.58;;
58302;SDS011;44109;52.398;7.024;2023-06-19T06:04:45;2.95;;;1.65;;
58302;SDS011;44109;52.398;7.024;2023-06-19T06:07:12;3.53;;;1.90;;
58302;SDS011;44109;52.398;7.024;2023-06-19T06:09:40;3.63;;;2.00;;
58302;SDS011;44109;52.398;7.024;2023-06-19T06:12:08;3.55;;;1.23;;
58302;SDS011;44109;52.398;7.024;2023-06-19T06:14:37;3.88;;;1.60;;
58302;SDS011;44109;52.398;7.024;2023-06-19T06:17:05;3.00;;;1.42;;
58302;SDS011;44109;52.398;7.024;2023-06-19T06:19:33;3.47;;;1.75;;
58302;SDS011;44109;52.398;7.024;2023-06-19T06:22:02;3.00;;;1.40;;
58302;SDS011;44109;52.398;7.024;2023-06-19T06:24:31;2.83;;;1.45;;
58302;SDS011;44109;52.398;7.024;2023-06-19T06:26:58;3.53;;;1.63;;
58302;SDS011;44109;52.398;7.024;2023-06-19T06:29:26;2.28;;;1.40;;
58302;SDS011;44109;52.398;7.024;2023-06-19T06:32:03;3.30;;;2.08;;
58302;SDS011;44109;52.398;7.024;2023-06-19T06:34:32;3.20;;;2.03;;
58302;SDS011;44109;52.398;7.024;2023-06-19T06:37:00;3.53;;;1.75;;
58302;SDS011;44109;52.398;7.024;2023-06-19T06:39:28;2.53;;;1.65;;
58302;SDS011;44109;52.398;7.024;2023-06-19T06:41:57;1.77;;;1.23;;
58302;SDS011;44109;52.398;7.024;2023-06-19T06:44:25;3.25;;;1.90;;
58302;SDS011;44109;52.398;7.024;2023-06-19T06:46:53;3.67;;;1.80;;
58302;SDS011;44109;52.398;7.024;2023-06-19T06:49:22;3.17;;;1.50;;
58302;SDS011;44109;52.398;7.024;2023-06-19T06:51:50;1.77;;;0.95;;
58302;SDS011;44109;52.398;7.024;2023-06-19T06:54:18;3.33;;;1.73;;
58302;SDS011;44109;52.398;7.024;2023-06-19T06:56:45;5.15;;;2.47;;
58302;SDS011;44109;52.398;7.024;2023-06-19T06:59:14;3.25;;;1.85;;
58302;SDS011;44109;52.398;7.024;2023-06-19T07:01:42;6.25;;;1.80;;
58302;SDS011;44109;52.398;7.024;2023-06-19T07:04:10;3.50;;;1.85;;
58302;SDS011;44109;52.398;7.024;2023-06-19T07:06:39;3.17;;;2.10;;
58302;SDS011;44109;52.398;7.024;2023-06-19T07:09:06;3.05;;;2.25;;
58302;SDS011;44109;52.398;7.024;2023-06-19T07:11:34;2.35;;;1.55;;
58302;SDS011;44109;52.398;7.024;2023-06-19T07:14:02;3.50;;;1.83;;
58302;SDS011;44109;52.398;7.024;2023-06-19T07:16:29;4.00;;;2.22;;
58302;SDS011;44109;52.398;7.024;2023-06-19T07:18:57;2.78;;;1.77;;
58302;SDS011;44109;52.398;7.024;2023-06-19T07:21:25;3.88;;;2.22;;
58302;SDS011;44109;52.398;7.024;2023-06-19T07:23:57;5.85;;;2.70;;
58302;SDS011;44109;52.398;7.024;2023-06-19T07:26:26;3.42;;;1.90;;
58302;SDS011;44109;52.398;7.024;2023-06-19T07:28:54;2.80;;;1.88;;
58302;SDS011;44109;52.398;7.024;2023-06-19T07:31:21;4.57;;;2.28;;
58302;SDS011;44109;52.398;7.024;2023-06-19T07:33:49;4.05;;;1.98;;
58302;SDS011;44109;52.398;7.024;2023-06-19T07:36:16;4.72;;;2.80;;
58302;SDS011;44109;52.398;7.024;2023-06-19T07:38:44;4.70;;;1.70;;
58302;SDS011;44109;52.398;7.024;2023-06-19T07:41:14;2.95;;;1.58;;
58302;SDS011;44109;52.398;7.024;2023-06-19T07:43:41;4.72;;;2.03;;
58302;SDS011;44109;52.398;7.024;2023-06-19T07:46:09;4.68;;;2.53;;
58302;SDS011;44109;52.398;7.024;2023-06-19T07:48:37;3.75;;;2.50;;
58302;SDS011;44109;52.398;7.024;2023-06-19T07:51:04;4.22;;;2.15;;
58302;SDS011;44109;52.398;7.024;2023-06-19T07:53:32;4.68;;;2.35;;
58302;SDS011;44109;52.398;7.024;2023-06-19T07:56:00;3.45;;;2.00;;
58302;SDS011;44109;52.398;7.024;2023-06-19T07:58:28;2.85;;;1.75;;
58302;SDS011;44109;52.398;7.024;2023-06-19T08:00:57;4.30;;;2.17;;
58302;SDS011;44109;52.398;7.024;2023-06-19T08:03:24;2.63;;;1.70;;
58302;SDS011;44109;52.398;7.024;2023-06-19T08:05:53;2.90;;;1.63;;
58302;SDS011;44109;52.398;7.024;2023-06-19T08:08:20;2.80;;;1.55;;
58302;SDS011;44109;52.398;7.024;2023-06-19T08:10:48;4.60;;;2.00;;
58302;SDS011;44109;52.398;7.024;2023-06-19T08:13:16;3.60;;;2.17;;
58302;SDS011;44109;52.398;7.024;2023-06-19T08:15:45;4.15;;;1.83;;
58302;SDS011;44109;52.398;7.024;2023-06-19T08:18:13;7.22;;;2.78;;
58302;SDS011;44109;52.398;7.024;2023-06-19T08:20:40;4.70;;;2.95;;
58302;SDS011;44109;52.398;7.024;2023-06-19T08:23:08;3.95;;;2.08;;
58302;SDS011;44109;52.398;7.024;2023-06-19T08:25:35;6.95;;;2.85;;
58302;SDS011;44109;52.398;7.024;2023-06-19T08:28:03;4.32;;;2.20;;
58302;SDS011;44109;52.398;7.024;2023-06-19T08:30:31;3.40;;;1.83;;
58302;SDS011;44109;52.398;7.024;2023-06-19T08:33:00;4.75;;;2.55;;
58302;SDS011;44109;52.398;7.024;2023-06-19T08:35:28;4.93;;;2.30;;
58302;SDS011;44109;52.398;7.024;2023-06-19T08:37:55;3.75;;;1.92;;
58302;SDS011;44109;52.398;7.024;2023-06-19T08:40:23;4.90;;;2.15;;
58302;SDS011;44109;52.398;7.024;2023-06-19T08:42:51;3.78;;;2.42;;
58302;SDS011;44109;52.398;7.024;2023-06-19T08:45:19;3.85;;;2.28;;
58302;SDS011;44109;52.398;7.024;2023-06-19T08:47:46;4.78;;;2.40;;
58302;SDS011;44109;52.398;7.024;2023-06-19T08:50:16;3.90;;;2.08;;
58302;SDS011;44109;52.398;7.024;2023-06-19T08:52:43;3.22;;;2.35;;
58302;SDS011;44109;52.398;7.024;2023-06-19T08:55:11;5.22;;;2.80;;
58302;SDS011;44109;52.398;7.024;2023-06-19T08:57:39;2.63;;;1.80;;
58302;SDS011;44109;52.398;7.024;2023-06-19T09:00:07;5.68;;;2.80;;
58302;SDS011;44109;52.398;7.024;2023-06-19T09:02:37;3.72;;;2.45;;
58302;SDS011;44109;52.398;7.024;2023-06-19T09:05:11;4.10;;;2.50;;
58302;SDS011;44109;52.398;7.024;2023-06-19T09:07:42;5.43;;;2.70;;
58302;SDS011;44109;52.398;7.024;2023-06-19T09:10:14;4.60;;;3.22;;
58302;SDS011;44109;52.398;7.024;2023-06-19T09:12:55;4.53;;;2.58;;
58302;SDS011;44109;52.398;7.024;2023-06-19T09:15:27;4.32;;;3.15;;
58302;SDS011;44109;52.398;7.024;2023-06-19T09:18:06;3.60;;;2.38;;
58302;SDS011;44109;52.398;7.024;2023-06-19T09:20:37;8.10;;;2.80;;
58302;SDS011;44109;52.398;7.024;2023-06-19T09:23:11;5.95;;;3.22;;
58302;SDS011;44109;52.398;7.024;2023-06-19T09:25:45;3.45;;;2.10;;
58302;SDS011;44109;52.398;7.024;2023-06-19T09:28:17;4.05;;;2.30;;
58302;SDS011;44109;52.398;7.024;2023-06-19T09:30:53;3.35;;;2.33;;
58302;SDS011;44109;52.398;7.024;2023-06-19T09:33:23;3.85;;;2.55;;
58302;SDS011;44109;52.398;7.024;2023-06-19T09:35:53;6.82;;;2.88;;
58302;SDS011;44109;52.398;7.024;2023-06-19T09:38:26;6.13;;;2.80;;
58302;SDS011;44109;52.398;7.024;2023-06-19T09:40:55;4.82;;;2.47;;
58302;SDS011;44109;52.398;7.024;2023-06-19T09:43:29;5.80;;;2.60;;
58302;SDS011;44109;52.398;7.024;2023-06-19T09:46:03;4.20;;;2.78;;
58302;SDS011;44109;52.398;7.024;2023-06-19T09:48:32;5.78;;;3.67;;
58302;SDS011;44109;52.398;7.024;2023-06-19T09:51:05;4.88;;;2.88;;
58302;SDS011;44109;52.398;7.024;2023-06-19T09:53:38;5.70;;;3.28;;
58302;SDS011;44109;52.398;7.024;2023-06-19T09:56:07;4.47;;;2.90;;
58302;SDS011;44109;52.398;7.024;2023-06-19T09:58:36;5.30;;;2.80;;
58302;SDS011;44109;52.398;7.024;2023-06-19T10:01:05;6.32;;;3.75;;
58302;SDS011;44109;52.398;7.024;2023-06-19T10:03:34;5.55;;;3.40;;
58302;SDS011;44109;52.398;7.024;2023-06-19T10:06:03;4.47;;;2.88;;
58302;SDS011;44109;52.398;7.024;2023-06-19T10:08:38;4.40;;;2.42;;
58302;SDS011;44109;52.398;7.024;2023-06-19T10:11:09;4.10;;;3.00;;
58302;SDS011;44109;52.398;7.024;2023-06-19T10:13:37;5.25;;;3.72;;
58302;SDS011;44109;52.398;7.024;2023-06-19T10:16:12;5.72;;;3.28;;
58302;SDS011;44109;52.398;7.024;2023-06-19T10:18:47;5.50;;;2.38;;
58302;SDS011;44109;52.398;7.024;2023-06-19T10:21:16;3.97;;;2.33;;
58302;SDS011;44109;52.398;7.024;2023-06-19T10:23:52;2.85;;;2.13;;
58302;SDS011;44109;52.398;7.024;2023-06-19T10:26:29;3.13;;;1.90;;
58302;SDS011;44109;52.398;7.024;2023-06-19T10:28:58;6.50;;;3.28;;
58302;SDS011;44109;52.398;7.024;2023-06-19T10:31:26;4.55;;;2.58;;
58302;SDS011;44109;52.398;7.024;2023-06-19T10:33:55;4.35;;;2.65;;
58302;SDS011;44109;52.398;7.024;2023-06-19T10:36:23;4.97;;;2.58;;
58302;SDS011;44109;52.398;7.024;2023-06-19T10:38:53;6.20;;;3.38;;
58302;SDS011;44109;52.398;7.024;2023-06-19T10:41:22;6.25;;;3.17;;
58302;SDS011;44109;52.398;7.024;2023-06-19T10:43:55;5.03;;;3.15;;
58302;SDS011;44109;52.398;7.024;2023-06-19T10:46:28;6.43;;;2.88;;
58302;SDS011;44109;52.398;7.024;2023-06-19T10:48:57;3.92;;;2.47;;
58302;SDS011;44109;52.398;7.024;2023-06-19T10:51:27;5.22;;;3.13;;
58302;SDS011;44109;52.398;7.024;2023-06-19T10:53:56;4.03;;;2.72;;
58302;SDS011;44109;52.398;7.024;2023-06-19T10:56:24;4.20;;;2.97;;
58302;SDS011;44109;52.398;7.024;2023-06-19T10:58:58;5.13;;;2.95;;
58302;SDS011;44109;52.398;7.024;2023-06-19T11:01:31;5.75;;;2.88;;
58302;SDS011;44109;52.398;7.024;2023-06-19T11:04:02;5.97;;;2.97;;
58302;SDS011;44109;52.398;7.024;2023-06-19T11:06:31;4.90;;;2.42;;
58302;SDS011;44109;52.398;7.024;2023-06-19T11:09:01;4.07;;;2.60;;
58302;SDS011;44109;52.398;7.024;2023-06-19T11:11:40;4.50;;;3.22;;
58302;SDS011;44109;52.398;7.024;2023-06-19T11:14:11;5.28;;;2.88;;
58302;SDS011;44109;52.398;7.024;2023-06-19T11:16:41;5.90;;;2.67;;
58302;SDS011;44109;52.398;7.024;2023-06-19T11:19:13;4.43;;;2.63;;
58302;SDS011;44109;52.398;7.024;2023-06-19T11:21:44;4.70;;;2.90;;
58302;SDS011;44109;52.398;7.024;2023-06-19T11:24:15;5.00;;;2.38;;
58302;SDS011;44109;52.398;7.024;2023-06-19T11:26:44;4.28;;;2.78;;
58302;SDS011;44109;52.398;7.024;2023-06-19T11:29:16;4.45;;;3.42;;
58302;SDS011;44109;52.398;7.024;2023-06-19T11:31:45;5.10;;;2.78;;
58302;SDS011;44109;52.398;7.024;2023-06-19T11:34:14;6.78;;;3.35;;
58302;SDS011;44109;52.398;7.024;2023-06-19T11:36:43;4.95;;;3.05;;
58302;SDS011;44109;52.398;7.024;2023-06-19T11:39:11;5.53;;;2.97;;
58302;SDS011;44109;52.398;7.024;2023-06-19T11:41:43;3.60;;;2.30;;
58302;SDS011;44109;52.398;7.024;2023-06-19T11:44:11;5.65;;;3.33;;
58302;SDS011;44109;52.398;7.024;2023-06-19T11:46:39;5.15;;;3.38;;
58302;SDS011;44109;52.398;7.024;2023-06-19T11:49:07;5.57;;;2.85;;
58302;SDS011;44109;52.398;7.024;2023-06-19T11:51:36;5.40;;;3.42;;
58302;SDS011;44109;52.398;7.024;2023-06-19T11:54:05;5.75;;;3.20;;
58302;SDS011;44109;52.398;7.024;2023-06-19T11:56:35;4.57;;;3.08;;
58302;SDS011;44109;52.398;7.024;2023-06-19T11:59:04;4.57;;;3.10;;
58302;SDS011;44109;52.398;7.024;2023-06-19T12:01:32;7.63;;;3.80;;
58302;SDS011;44109;52.398;7.024;2023-06-19T12:04:01;7.00;;;3.10;;
58302;SDS011;44109;52.398;7.024;2023-06-19T12:06:30;4.75;;;3.20;;
58302;SDS011;44109;52.398;7.024;2023-06-19T12:08:58;6.57;;;3.42;;
58302;SDS011;44109;52.398;7.024;2023-06-19T12:11:26;6.22;;;3.90;;
58302;SDS011;44109;52.398;7.024;2023-06-19T12:13:53;5.68;;;3.55;;
58302;SDS011;44109;52.398;7.024;2023-06-19T12:16:23;5.05;;;3.30;;
58302;SDS011;44109;52.398;7.024;2023-06-19T12:18:52;4.65;;;3.67;;
58302;SDS011;44109;52.398;7.024;2023-06-19T12:21:20;7.30;;;4.45;;
58302;SDS011;44109;52.398;7.024;2023-06-19T12:23:48;8.88;;;4.07;;
58302;SDS011;44109;52.398;7.024;2023-06-19T12:26:15;4.97;;;3.28;;
58302;SDS011;44109;52.398;7.024;2023-06-19T12:28:43;5.82;;;3.47;;
58302;SDS011;44109;52.398;7.024;2023-06-19T12:31:10;4.60;;;3.03;;
58302;SDS011;44109;52.398;7.024;2023-06-19T12:33:39;4.72;;;3.33;;
58302;SDS011;44109;52.398;7.024;2023-06-19T12:36:10;4.63;;;2.88;;
58302;SDS011;44109;52.398;7.024;2023-06-19T12:38:39;5.78;;;3.40;;
58302;SDS011;44109;52.398;7.024;2023-06-19T12:41:07;5.57;;;3.22;;
58302;SDS011;44109;52.398;7.024;2023-06-19T12:43:34;5.35;;;2.63;;
58302;SDS011;44109;52.398;7.024;2023-06-19T12:46:02;5.95;;;3.00;;
58302;SDS011;44109;52.398;7.024;2023-06-19T12:48:30;5.22;;;3.00;;
58302;SDS011;44109;52.398;7.024;2023-06-19T12:51:00;5.72;;;3.15;;
58302;SDS011;44109;52.398;7.024;2023-06-19T12:53:28;6.20;;;2.90;;
58302;SDS011;44109;52.398;7.024;2023-06-19T12:55:56;4.82;;;3.10;;
58302;SDS011;44109;52.398;7.024;2023-06-19T12:58:24;7.82;;;3.95;;
58302;SDS011;44109;52.398;7.024;2023-06-19T13:00:53;6.60;;;3.17;;
58302;SDS011;44109;52.398;7.024;2023-06-19T13:03:21;6.65;;;3.63;;
58302;SDS011;44109;52.398;7.024;2023-06-19T13:05:48;4.63;;;2.83;;
58302;SDS011;44109;52.398;7.024;2023-06-19T13:08:18;5.35;;;3.53;;
58302;SDS011;44109;52.398;7.024;2023-06-19T13:10:45;6.35;;;3.00;;
58302;SDS011;44109;52.398;7.024;2023-06-19T13:13:13;6.00;;;3.60;;
58302;SDS011;44109;52.398;7.024;2023-06-19T13:15:41;5.65;;;2.83;;
58302;SDS011;44109;52.398;7.024;2023-06-19T13:18:08;4.88;;;2.88;;
58302;SDS011;44109;52.398;7.024;2023-06-19T13:20:36;7.10;;;3.55;;
58302;SDS011;44109;52.398;7.024;2023-06-19T13:23:03;4.25;;;2.75;;
58302;SDS011;44109;52.398;7.024;2023-06-19T13:25:33;5.90;;;3.55;;
58302;SDS011;44109;52.398;7.024;2023-06-19T13:28:01;4.47;;;2.25;;
58302;SDS011;44109;52.398;7.024;2023-06-19T13:30:29;5.10;;;2.65;;
58302;SDS011;44109;52.398;7.024;2023-06-19T13:32:56;3.70;;;2.28;;
58302;SDS011;44109;52.398;7.024;2023-06-19T13:35:24;4.25;;;2.38;;
58302;SDS011;44109;52.398;7.024;2023-06-19T13:37:51;5.57;;;2.47;;
58302;SDS011;44109;52.398;7.024;2023-06-19T13:40:19;4.15;;;2.58;;
58302;SDS011;44109;52.398;7.024;2023-06-19T13:42:48;3.88;;;2.45;;
58302;SDS011;44109;52.398;7.024;2023-06-19T13:45:16;4.78;;;2.63;;
58302;SDS011;44109;52.398;7.024;2023-06-19T13:47:43;4.80;;;2.83;;
58302;SDS011;44109;52.398;7.024;2023-06-19T13:50:11;5.15;;;3.45;;
58302;SDS011;44109;52.398;7.024;2023-06-19T13:55:12;5.30;;;3.13;;
58302;SDS011;44109;52.398;7.024;2023-06-19T13:57:40;5.43;;;3.08;;
58302;SDS011;44109;52.398;7.024;2023-06-19T14:00:11;4.25;;;2.75;;
58302;SDS011;44109;52.398;7.024;2023-06-19T14:02:40;4.57;;;3.13;;
58302;SDS011;44109;52.398;7.024;2023-06-19T14:05:08;5.13;;;3.22;;
58302;SDS011;44109;52.398;7.024;2023-06-19T14:07:36;4.60;;;2.83;;
58302;SDS011;44109;52.398;7.024;2023-06-19T14:10:04;5.05;;;3.33;;
58302;SDS011;44109;52.398;7.024;2023-06-19T14:12:33;4.80;;;3.15;;
58302;SDS011;44109;52.398;7.024;2023-06-19T14:15:00;3.92;;;2.40;;
58302;SDS011;44109;52.398;7.024;2023-06-19T14:17:29;4.13;;;2.13;;
58302;SDS011;44109;52.398;7.024;2023-06-19T14:19:57;4.85;;;2.47;;
58302;SDS011;44109;52.398;7.024;2023-06-19T14:22:24;5.45;;;2.65;;
58302;SDS011;44109;52.398;7.024;2023-06-19T14:24:52;3.58;;;2.33;;
58302;SDS011;44109;52.398;7.024;2023-06-19T14:27:25;3.85;;;2.45;;
58302;SDS011;44109;52.398;7.024;2023-06-19T14:29:54;4.15;;;2.28;;
58302;SDS011;44109;52.398;7.024;2023-06-19T14:32:22;4.55;;;2.83;;
58302;SDS011;44109;52.398;7.024;2023-06-19T14:34:51;5.70;;;2.53;;
58302;SDS011;44109;52.398;7.024;2023-06-19T14:37:19;5.07;;;2.85;;
58302;SDS011;44109;52.398;7.024;2023-06-19T14:39:47;4.03;;;2.58;;
58302;SDS011;44109;52.398;7.024;2023-06-19T14:42:15;4.40;;;2.88;;
58302;SDS011;44109;52.398;7.024;2023-06-19T14:44:42;4.60;;;2.70;;
58302;SDS011;44109;52.398;7.024;2023-06-19T14:47:10;3.63;;;2.00;;
58302;SDS011;44109;52.398;7.024;2023-06-19T14:49:37;4.80;;;2.50;;
58302;SDS011;44109;52.398;7.024;2023-06-19T14:52:07;4.32;;;2.70;;
58302;SDS011;44109;52.398;7.024;2023-06-19T14:54:35;4.88;;;2.83;;
58302;SDS011;44109;52.398;7.024;2023-06-19T14:57:03;5.03;;;2.90;;
58302;SDS011;44109;52.398;7.024;2023-06-19T14:59:31;4.15;;;2.95;;
58302;SDS011;44109;52.398;7.024;2023-06-19T15:01:59;4.53;;;2.83;;
58302;SDS011;44109;52.398;7.024;2023-06-19T15:04:28;5.30;;;2.67;;